Time;durP1;ratioP1;P1;durP2;ratioP2;P2;SDS_P1;SDS_P2;PMS_P1;PMS_P2;Temp;Humidity;BMP_temperature;BMP_pressure;BME280_temperature;BME280_humidity;BME280_pressure;Samples;Min_cycle;Max_cycle;Signal;HPM_P1;HPM_P2
2024/01/15 00:02:19;;;;;;;39.73;19.37;;;1.10;99.90;;;;;;5113546;28;20179;-71
2024/01/15 00:04:44;;;;;;;45.57;21.83;;;0.90;99.90;;;;;;5113206;28;20181;-70
2024/01/15 00:07:10;;;;;;;43.00;20.40;;;1.00;99.90;;;;;;5112954;28;20188;-69
2024/01/15 00:09:36;;;;;;;24.73;14.67;;;1.10;99.90;;;;;;5111782;28;20177;-70
2024/01/15 00:12:02;;;;;;;37.77;19.80;;;1.10;99.90;;;;;;5112945;28;20228;-71
2024/01/15 00:14:28;;;;;;;32.37;18.40;;;1.00;99.90;;;;;;5113150;28;20229;-71
2024/01/15 00:16:55;;;;;;;41.50;20.43;;;0.80;99.90;;;;;;5112891;28;20182;-71
2024/01/15 00:19:23;;;;;;;37.43;20.60;;;0.90;99.90;;;;;;5112951;28;20251;-71
2024/01/15 00:21:50;;;;;;;35.13;18.70;;;1.10;99.90;;;;;;5113120;28;20172;-71
2024/01/15 00:24:15;;;;;;;34.83;20.43;;;0.90;99.90;;;;;;5113083;28;20173;-70
2024/01/15 00:26:41;;;;;;;46.23;22.70;;;0.80;99.90;;;;;;5112987;28;20208;-71
2024/01/15 00:29:08;;;;;;;35.73;20.53;;;0.90;99.90;;;;;;5111744;28;20188;-71
2024/01/15 00:31:33;;;;;;;47.87;23.27;;;0.90;99.90;;;;;;5112854;28;20191;-70
2024/01/15 00:33:59;;;;;;;33.20;18.93;;;0.80;99.90;;;;;;5113125;28;20173;-71
2024/01/15 00:36:25;;;;;;;42.43;20.43;;;1.00;99.90;;;;;;5112801;28;20204;-71
2024/01/15 00:38:51;;;;;;;45.97;22.73;;;0.80;99.90;;;;;;5112880;28;20165;-70
2024/01/15 00:41:18;;;;;;;53.83;21.77;;;0.90;99.90;;;;;;5112767;28;20209;-71
2024/01/15 00:43:48;;;;;;;47.17;23.07;;;1.00;99.90;;;;;;5112696;28;20169;-71
2024/01/15 00:46:14;;;;;;;53.40;22.10;;;0.80;99.90;;;;;;5112530;28;20565;-71
2024/01/15 00:48:40;;;;;;;46.03;22.33;;;1.00;99.90;;;;;;5112161;28;20173;-71
2024/01/15 00:51:06;;;;;;;51.07;23.30;;;0.90;99.90;;;;;;5112270;28;20676;-71
2024/01/15 00:53:32;;;;;;;54.17;21.77;;;0.80;99.90;;;;;;5112346;28;20636;-71
2024/01/15 00:55:57;;;;;;;41.13;22.60;;;0.90;99.90;;;;;;5112184;28;20188;-71
2024/01/15 00:58:23;;;;;;;50.90;24.63;;;0.90;99.90;;;;;;5112231;28;20263;-71
2024/01/15 01:00:48;;;;;;;54.80;23.47;;;1.00;99.90;;;;;;5112018;28;20268;-70
2024/01/15 01:03:14;;;;;;;40.90;19.70;;;0.80;99.90;;;;;;5112207;28;20237;-70
2024/01/15 01:05:40;;;;;;;34.90;19.20;;;0.90;99.90;;;;;;5112063;28;20222;-71
2024/01/15 01:08:05;;;;;;;39.03;20.93;;;0.90;99.90;;;;;;5112000;28;20646;-70
2024/01/15 01:10:31;;;;;;;37.93;20.00;;;0.70;99.90;;;;;;5112268;28;20250;-70
2024/01/15 01:12:57;;;;;;;42.70;21.80;;;0.90;99.90;;;;;;5111998;28;20268;-69
2024/01/15 01:15:22;;;;;;;46.17;21.53;;;0.90;99.90;;;;;;5111870;28;20500;-71
2024/01/15 01:17:48;;;;;;;39.27;18.37;;;1.00;99.90;;;;;;5112355;28;20173;-71
2024/01/15 01:20:15;;;;;;;38.80;21.87;;;0.90;99.90;;;;;;5112550;28;20165;-71
2024/01/15 01:22:41;;;;;;;37.60;19.53;;;0.80;99.90;;;;;;5111946;28;20169;-72
2024/01/15 01:25:07;;;;;;;54.60;24.43;;;0.90;99.90;;;;;;5112291;28;20176;-71
2024/01/15 01:27:32;;;;;;;37.20;19.13;;;1.00;99.90;;;;;;5111744;28;20204;-70
2024/01/15 01:29:58;;;;;;;39.63;20.73;;;0.90;99.90;;;;;;5111810;28;20196;-71
2024/01/15 01:32:23;;;;;;;46.30;22.13;;;0.80;99.90;;;;;;5111568;28;20196;-71
2024/01/15 01:34:49;;;;;;;44.63;22.50;;;0.90;99.90;;;;;;5111648;28;20183;-69
2024/01/15 01:37:15;;;;;;;38.40;20.43;;;0.80;99.90;;;;;;5111694;28;20227;-71
2024/01/15 01:39:43;;;;;;;46.80;21.60;;;0.80;99.90;;;;;;5111621;28;20248;-70
2024/01/15 01:42:09;;;;;;;46.97;21.63;;;0.80;99.90;;;;;;5111741;28;20181;-71
2024/01/15 01:44:35;;;;;;;35.83;20.77;;;0.90;99.90;;;;;;5111714;28;20169;-70
2024/01/15 01:47:01;;;;;;;37.70;19.80;;;1.10;99.90;;;;;;5111451;28;20240;-71
2024/01/15 01:49:28;;;;;;;46.37;22.03;;;0.90;99.90;;;;;;5110327;28;20647;-71
2024/01/15 01:51:58;;;;;;;43.13;20.67;;;0.90;99.90;;;;;;5111497;28;20267;-70
2024/01/15 01:54:26;;;;;;;50.17;22.33;;;1.00;99.90;;;;;;5111598;28;20161;-72
2024/01/15 01:56:52;;;;;;;31.97;16.27;;;0.90;99.90;;;;;;5111391;28;20566;-71
2024/01/15 01:59:18;;;;;;;42.27;18.83;;;1.00;99.90;;;;;;5111896;28;20169;-70
2024/01/15 02:01:44;;;;;;;47.07;22.70;;;0.90;99.90;;;;;;5112953;28;20288;-70
2024/01/15 02:04:11;;;;;;;47.23;20.83;;;1.00;99.90;;;;;;5115649;28;20169;-71
2024/01/15 02:06:37;;;;;;;28.97;19.20;;;1.10;99.90;;;;;;5115578;28;20205;-71
2024/01/15 02:09:05;;;;;;;44.97;23.47;;;1.00;99.90;;;;;;5115489;28;20180;-71
2024/01/15 02:11:31;;;;;;;49.40;23.40;;;1.00;99.90;;;;;;5114495;28;20196;-70
2024/01/15 02:13:57;;;;;;;47.37;21.90;;;0.90;99.90;;;;;;5115606;28;20230;-71
2024/01/15 02:16:22;;;;;;;43.03;21.57;;;1.10;99.90;;;;;;5115706;28;20189;-71
2024/01/15 02:18:48;;;;;;;48.53;22.27;;;1.20;99.90;;;;;;5115317;28;20640;-71
2024/01/15 02:21:13;;;;;;;45.50;21.90;;;1.00;99.90;;;;;;5115382;28;20787;-70
2024/01/15 02:23:39;;;;;;;49.30;20.70;;;1.10;99.90;;;;;;5115347;28;20173;-70
2024/01/15 02:26:06;;;;;;;43.47;20.57;;;1.00;99.90;;;;;;5115003;28;20256;-71
2024/01/15 02:28:32;;;;;;;48.07;21.90;;;1.00;99.90;;;;;;5115453;28;20230;-70
2024/01/15 02:30:58;;;;;;;45.00;21.43;;;1.00;99.90;;;;;;5115067;28;20176;-70
2024/01/15 02:33:24;;;;;;;44.30;22.47;;;1.00;99.90;;;;;;5115457;28;20535;-70
2024/01/15 02:35:52;;;;;;;38.47;20.27;;;1.20;99.90;;;;;;5113692;28;20328;-70
2024/01/15 02:38:18;;;;;;;51.80;23.07;;;1.00;99.90;;;;;;5114048;28;20165;-70
2024/01/15 02:40:44;;;;;;;45.87;22.80;;;1.00;99.90;;;;;;5115010;28;20297;-70
2024/01/15 02:43:10;;;;;;;31.50;17.63;;;1.20;99.90;;;;;;5115082;28;20548;-70
2024/01/15 02:45:36;;;;;;;43.03;21.90;;;1.10;99.90;;;;;;5114947;28;20192;-71
2024/01/15 02:48:02;;;;;;;40.53;19.77;;;1.10;99.90;;;;;;5114881;28;20165;-70
2024/01/15 02:50:27;;;;;;;41.80;21.17;;;1.10;99.90;;;;;;5115348;28;20708;-71
2024/01/15 02:52:53;;;;;;;38.63;20.40;;;1.10;99.90;;;;;;5115012;28;20204;-71
2024/01/15 02:55:18;;;;;;;43.20;20.77;;;1.00;99.90;;;;;;5115030;28;20176;-71
2024/01/15 02:57:44;;;;;;;39.93;20.90;;;1.10;99.90;;;;;;5114909;28;20262;-71
2024/01/15 03:00:11;;;;;;;31.63;17.63;;;1.10;99.90;;;;;;5096589;28;20218;-71
2024/01/15 03:02:39;;;;;;;35.17;16.97;;;1.10;99.90;;;;;;5114618;28;20222;-70
2024/01/15 03:05:08;;;;;;;33.50;18.70;;;1.00;99.90;;;;;;5114363;28;20234;-69
2024/01/15 03:07:33;;;;;;;44.23;20.77;;;1.00;99.90;;;;;;5114321;28;20279;-72
2024/01/15 03:09:59;;;;;;;34.83;19.07;;;1.10;99.90;;;;;;5114813;28;20286;-71
2024/01/15 03:12:25;;;;;;;42.63;20.63;;;0.90;99.90;;;;;;5113908;28;20188;-71
2024/01/15 03:14:51;;;;;;;33.53;18.23;;;1.10;99.90;;;;;;5113500;28;20169;-72
2024/01/15 03:17:16;;;;;;;27.77;15.37;;;1.10;99.90;;;;;;5114033;28;20193;-70
2024/01/15 03:19:42;;;;;;;28.63;18.93;;;1.10;99.90;;;;;;5113748;28;20280;-72
2024/01/15 03:22:08;;;;;;;22.33;12.10;;;1.10;99.90;;;;;;5114140;28;20169;-70
2024/01/15 03:24:34;;;;;;;34.47;20.27;;;1.10;99.90;;;;;;5114241;28;20662;-71
2024/01/15 03:27:00;;;;;;;38.60;20.80;;;1.00;99.90;;;;;;5113826;28;20205;-72
2024/01/15 03:29:26;;;;;;;33.83;18.97;;;1.10;99.90;;;;;;5114053;28;20259;-71
2024/01/15 03:31:52;;;;;;;39.23;20.60;;;1.10;99.90;;;;;;5113768;28;20322;-71
2024/01/15 03:34:18;;;;;;;36.47;21.23;;;1.10;99.90;;;;;;5114121;28;20255;-71
2024/01/15 03:36:44;;;;;;;46.97;22.93;;;1.20;99.90;;;;;;5095700;28;20189;-70
2024/01/15 03:39:09;;;;;;;38.37;20.23;;;1.20;99.90;;;;;;5114006;28;20211;-70
2024/01/15 03:41:35;;;;;;;37.63;22.43;;;1.10;99.90;;;;;;5113981;28;20546;-69
2024/01/15 03:44:01;;;;;;;40.07;20.67;;;1.10;99.90;;;;;;5113659;28;20173;-71
2024/01/15 03:46:27;;;;;;;39.60;22.30;;;1.10;99.90;;;;;;5113595;28;20744;-71
2024/01/15 03:48:52;;;;;;;35.70;21.10;;;1.10;99.90;;;;;;5113567;28;20268;-71
2024/01/15 03:51:18;;;;;;;47.20;24.27;;;1.30;99.90;;;;;;5113581;28;20256;-70
2024/01/15 03:53:44;;;;;;;43.70;23.13;;;1.20;99.90;;;;;;5113539;28;20169;-70
2024/01/15 03:56:10;;;;;;;41.50;21.23;;;1.20;99.90;;;;;;5113378;28;20204;-70
2024/01/15 03:58:36;;;;;;;47.20;22.57;;;1.20;99.90;;;;;;5113318;28;20173;-70
2024/01/15 04:01:01;;;;;;;38.80;20.70;;;1.10;99.90;;;;;;5113475;28;20635;-70
2024/01/15 04:03:27;;;;;;;40.70;21.23;;;1.10;99.90;;;;;;5113394;28;20636;-70
2024/01/15 04:05:52;;;;;;;37.13;21.67;;;1.30;99.90;;;;;;5113442;28;20184;-70
2024/01/15 04:08:18;;;;;;;37.60;18.70;;;1.20;99.90;;;;;;5113221;28;20176;-69
2024/01/15 04:10:43;;;;;;;39.03;20.50;;;1.10;99.90;;;;;;5113397;28;20240;-70
2024/01/15 04:13:09;;;;;;;38.57;21.80;;;1.00;99.90;;;;;;5112756;28;20211;-71
2024/01/15 04:15:36;;;;;;;43.20;20.80;;;1.00;99.90;;;;;;5113144;28;20180;-70
2024/01/15 04:18:02;;;;;;;43.33;21.30;;;1.00;99.90;;;;;;5113798;28;20755;-71
2024/01/15 04:20:28;;;;;;;36.07;19.20;;;0.90;99.90;;;;;;5113240;28;20197;-71
2024/01/15 04:22:53;;;;;;;29.00;17.53;;;1.10;99.90;;;;;;5113010;28;20215;-70
2024/01/15 04:25:19;;;;;;;39.50;19.47;;;0.90;99.90;;;;;;5112404;28;20180;-71
2024/01/15 04:27:45;;;;;;;41.97;20.63;;;1.10;99.90;;;;;;5112799;28;20192;-71
2024/01/15 04:30:10;;;;;;;38.53;17.80;;;0.90;99.90;;;;;;5094608;28;20663;-70
2024/01/15 04:32:36;;;;;;;39.80;19.37;;;1.10;99.90;;;;;;5095321;28;20205;-70
2024/01/15 04:35:02;;;;;;;33.90;17.27;;;1.00;99.90;;;;;;5112924;28;20171;-70
2024/01/15 04:37:27;;;;;;;35.63;19.30;;;1.00;99.90;;;;;;5112622;28;20181;-70
2024/01/15 04:39:54;;;;;;;35.43;18.33;;;1.00;99.90;;;;;;5112853;28;20238;-70
2024/01/15 04:42:21;;;;;;;40.83;19.90;;;1.00;99.90;;;;;;5112559;28;20175;-70
2024/01/15 04:44:47;;;;;;;31.67;18.70;;;1.10;99.90;;;;;;5112879;28;20197;-70
2024/01/15 04:47:12;;;;;;;39.67;19.50;;;1.00;99.90;;;;;;5112513;28;20220;-70
2024/01/15 04:49:38;;;;;;;30.83;19.20;;;1.10;99.90;;;;;;5112658;28;20608;-71
2024/01/15 04:52:03;;;;;;;33.73;18.17;;;1.10;99.90;;;;;;5112366;28;20197;-72
2024/01/15 04:54:29;;;;;;;33.67;18.90;;;1.20;99.90;;;;;;5112362;28;20173;-70
2024/01/15 04:56:55;;;;;;;28.87;16.77;;;1.00;99.90;;;;;;5112937;28;20582;-71
2024/01/15 04:59:21;;;;;;;32.10;18.73;;;1.20;99.90;;;;;;5112410;28;20246;-71
2024/01/15 05:01:47;;;;;;;36.53;18.50;;;1.10;99.90;;;;;;5112328;28;20185;-71
2024/01/15 05:04:12;;;;;;;42.43;20.03;;;1.20;99.90;;;;;;5112954;28;20171;-71
2024/01/15 05:06:38;;;;;;;31.20;16.90;;;1.00;99.90;;;;;;5112464;28;20188;-71
2024/01/15 05:09:04;;;;;;;31.67;18.87;;;0.90;99.90;;;;;;5112322;28;20180;-70
2024/01/15 05:11:30;;;;;;;33.97;19.83;;;0.90;99.90;;;;;;5111981;28;20185;-70
2024/01/15 05:13:55;;;;;;;26.80;16.60;;;0.90;99.90;;;;;;5110982;28;20565;-71
2024/01/15 05:16:21;;;;;;;32.07;18.60;;;1.10;99.90;;;;;;5112123;28;20191;-71
2024/01/15 05:18:47;;;;;;;34.60;19.27;;;1.10;99.90;;;;;;5094433;28;20203;-71
2024/01/15 05:21:12;;;;;;;37.90;17.83;;;1.00;99.90;;;;;;5112026;28;20613;-71
2024/01/15 05:23:38;;;;;;;25.40;15.77;;;1.10;99.90;;;;;;5112242;28;20169;-70
2024/01/15 05:26:04;;;;;;;32.90;18.23;;;1.10;99.90;;;;;;5112146;28;20192;-70
2024/01/15 05:28:29;;;;;;;33.63;18.50;;;1.10;99.90;;;;;;5111089;28;20280;-70
2024/01/15 05:30:55;;;;;;;31.00;16.53;;;1.10;99.90;;;;;;5112272;28;20647;-70
2024/01/15 05:33:22;;;;;;;30.40;16.87;;;1.20;99.90;;;;;;5112150;28;20564;-71
2024/01/15 05:35:50;;;;;;;32.40;17.17;;;1.20;99.90;;;;;;5112156;28;20233;-70
2024/01/15 05:38:16;;;;;;;26.23;17.10;;;1.10;99.90;;;;;;5116864;28;20199;-71
2024/01/15 05:40:41;;;;;;;25.57;17.30;;;1.10;99.90;;;;;;5116508;28;20208;-70
2024/01/15 05:43:07;;;;;;;24.43;14.37;;;1.20;99.90;;;;;;5116438;28;20173;-71
2024/01/15 05:45:34;;;;;;;33.20;17.40;;;1.30;99.90;;;;;;5098049;28;20196;-70
2024/01/15 05:48:00;;;;;;;32.47;17.10;;;1.30;99.90;;;;;;5116399;28;20173;-70
2024/01/15 05:50:26;;;;;;;26.57;14.30;;;1.10;99.90;;;;;;5116390;28;20550;-70
2024/01/15 05:52:51;;;;;;;25.27;14.67;;;1.30;99.90;;;;;;5116144;28;20196;-70
2024/01/15 05:55:18;;;;;;;25.37;15.30;;;1.10;99.90;;;;;;5115818;28;20177;-70
2024/01/15 05:57:44;;;;;;;25.50;14.93;;;1.30;99.90;;;;;;5114759;28;20169;-70
2024/01/15 06:00:10;;;;;;;24.40;15.40;;;1.20;99.90;;;;;;5116055;28;20161;-71
2024/01/15 06:02:38;;;;;;;24.30;15.60;;;1.40;99.90;;;;;;5116164;28;20164;-71
2024/01/15 06:05:04;;;;;;;23.23;14.33;;;1.40;99.90;;;;;;5114747;28;20555;-70
2024/01/15 06:07:29;;;;;;;25.83;17.10;;;1.20;99.90;;;;;;5116033;28;20195;-71
2024/01/15 06:09:56;;;;;;;22.53;14.83;;;1.40;99.90;;;;;;5115645;28;20230;-70
2024/01/15 06:12:22;;;;;;;29.30;17.23;;;1.20;99.90;;;;;;5114522;28;20203;-71
2024/01/15 06:14:48;;;;;;;28.23;17.37;;;1.20;99.90;;;;;;5115794;28;20173;-70
2024/01/15 06:17:13;;;;;;;30.93;17.20;;;1.30;99.90;;;;;;5115907;28;20569;-70
2024/01/15 06:19:39;;;;;;;31.87;18.47;;;1.40;99.90;;;;;;5115917;28;20196;-70
2024/01/15 06:22:05;;;;;;;28.27;16.43;;;1.30;99.90;;;;;;5115585;28;20177;-70
2024/01/15 06:24:30;;;;;;;26.87;17.70;;;1.40;99.90;;;;;;5115559;28;20179;-71
2024/01/15 06:26:56;;;;;;;32.17;18.27;;;1.30;99.90;;;;;;5115312;28;20239;-70
2024/01/15 06:29:21;;;;;;;27.43;18.70;;;1.30;99.90;;;;;;5115347;28;20188;-72
2024/01/15 06:31:47;;;;;;;32.13;18.80;;;1.30;99.90;;;;;;5115588;28;20280;-71
2024/01/15 06:34:15;;;;;;;33.53;18.67;;;1.70;99.90;;;;;;5115367;28;20173;-70
2024/01/15 06:36:40;;;;;;;31.83;17.87;;;1.30;99.90;;;;;;5115341;28;20669;-71
2024/01/15 06:39:06;;;;;;;32.27;19.17;;;1.30;99.90;;;;;;5115116;28;20193;-71
2024/01/15 06:41:32;;;;;;;28.67;18.43;;;1.30;99.90;;;;;;5115477;28;20173;-71
2024/01/15 06:43:57;;;;;;;27.90;19.00;;;1.30;99.90;;;;;;5115169;28;20421;-71
2024/01/15 06:46:23;;;;;;;35.80;19.07;;;1.30;99.90;;;;;;5115005;28;20193;-71
2024/01/15 06:48:49;;;;;;;33.90;17.80;;;1.20;99.90;;;;;;5114838;28;20255;-72
2024/01/15 06:51:16;;;;;;;23.90;16.03;;;1.30;99.90;;;;;;5114830;28;20208;-72
2024/01/15 06:53:42;;;;;;;30.10;19.50;;;1.30;99.90;;;;;;5115163;28;20165;-71
2024/01/15 06:56:08;;;;;;;36.37;19.50;;;1.40;99.90;;;;;;5114778;28;20188;-71
2024/01/15 06:58:34;;;;;;;36.67;18.83;;;1.20;99.90;;;;;;5115004;28;20173;-71
2024/01/15 07:00:59;;;;;;;32.40;19.07;;;1.40;99.90;;;;;;5114937;28;20690;-71
2024/01/15 07:03:25;;;;;;;26.37;18.03;;;1.50;99.90;;;;;;5114673;28;20187;-71
2024/01/15 07:05:51;;;;;;;29.73;17.73;;;1.50;99.90;;;;;;5114102;28;20193;-72
2024/01/15 07:08:16;;;;;;;36.27;19.10;;;1.30;99.90;;;;;;5096514;28;20173;-71
2024/01/15 07:10:42;;;;;;;37.97;19.73;;;1.40;99.90;;;;;;5114614;28;20199;-71
2024/01/15 07:13:08;;;;;;;30.90;19.07;;;1.40;99.90;;;;;;5114323;28;20188;-71
2024/01/15 07:15:34;;;;;;;29.33;20.17;;;1.50;99.90;;;;;;5114312;28;20192;-71
2024/01/15 07:18:00;;;;;;;31.33;18.93;;;1.40;99.90;;;;;;5114211;28;20667;-71
2024/01/15 07:20:25;;;;;;;33.17;21.33;;;1.40;99.90;;;;;;5114827;28;20218;-71
2024/01/15 07:22:51;;;;;;;31.33;19.27;;;1.40;99.90;;;;;;5112330;28;20177;-71
2024/01/15 07:25:17;;;;;;;22.17;16.43;;;1.40;99.90;;;;;;5114084;28;20251;-71
2024/01/15 07:27:44;;;;;;;30.67;20.23;;;1.40;99.90;;;;;;5114120;28;20249;-71
2024/01/15 07:30:11;;;;;;;29.87;19.17;;;1.40;99.90;;;;;;5113546;28;20632;-71
2024/01/15 07:32:37;;;;;;;30.10;20.20;;;1.40;99.90;;;;;;5113984;28;20200;-72
2024/01/15 07:35:03;;;;;;;29.17;18.43;;;1.40;99.90;;;;;;5114227;28;20179;-71
2024/01/15 07:37:28;;;;;;;30.57;19.80;;;1.40;99.90;;;;;;5113875;28;20209;-71
2024/01/15 07:39:54;;;;;;;32.50;18.53;;;1.40;99.90;;;;;;5113547;28;20222;-71
2024/01/15 07:42:20;;;;;;;36.17;20.63;;;1.40;99.90;;;;;;5113442;28;20926;-71
2024/01/15 07:44:45;;;;;;;32.73;20.20;;;1.50;99.90;;;;;;5113602;28;20196;-71
2024/01/15 07:47:11;;;;;;;40.00;21.90;;;1.50;99.90;;;;;;5113223;28;20608;-72
2024/01/15 07:49:37;;;;;;;35.13;22.63;;;1.50;99.90;;;;;;5113782;28;20228;-71
2024/01/15 07:52:04;;;;;;;37.60;21.37;;;1.80;99.90;;;;;;5113457;28;20275;-71
2024/01/15 07:54:30;;;;;;;35.23;20.70;;;1.60;99.90;;;;;;5113685;28;20260;-72
2024/01/15 07:57:00;;;;;;;40.33;22.40;;;1.60;99.90;;;;;;5111988;28;20586;-71
2024/01/15 07:59:27;;;;;;;37.13;23.27;;;1.60;99.90;;;;;;5112595;28;20200;-71
2024/01/15 08:01:53;;;;;;;42.77;24.87;;;1.60;99.90;;;;;;5116169;28;20241;-71
2024/01/15 08:04:19;;;;;;;41.80;24.53;;;1.60;99.90;;;;;;5098676;28;20180;-71
2024/01/15 08:06:45;;;;;;;52.07;25.03;;;1.50;99.90;;;;;;5114506;28;20204;-71
2024/01/15 08:09:12;;;;;;;39.63;23.83;;;1.60;99.90;;;;;;5114956;28;20210;-70
2024/01/15 08:11:44;;;;;;;42.57;22.63;;;1.60;99.90;;;;;;5118646;28;20229;-71
2024/01/15 08:14:10;;;;;;;32.17;21.03;;;1.60;99.90;;;;;;5113824;28;20176;-71
2024/01/15 08:16:36;;;;;;;43.73;23.47;;;1.70;99.90;;;;;;5115149;28;20285;-71
2024/01/15 08:19:02;;;;;;;37.23;21.60;;;1.70;99.90;;;;;;5117352;28;20252;-71
2024/01/15 08:21:31;;;;;;;38.43;22.37;;;1.60;99.90;;;;;;5115431;28;20215;-71
2024/01/15 08:24:01;;;;;;;35.93;22.20;;;1.60;99.90;;;;;;5119103;28;20181;-70
2024/01/15 08:26:26;;;;;;;40.13;21.37;;;1.70;99.90;;;;;;5121152;28;20216;-71
2024/01/15 08:28:56;;;;;;;38.13;22.30;;;1.60;99.90;;;;;;5118725;28;20589;-71
2024/01/15 08:31:22;;;;;;;39.83;20.07;;;1.60;99.90;;;;;;5079880;28;20230;-71
2024/01/15 08:33:48;;;;;;;39.57;23.40;;;1.60;99.90;;;;;;5112619;28;20210;-70
2024/01/15 08:36:13;;;;;;;40.47;22.73;;;1.60;99.90;;;;;;5112868;28;20253;-71
2024/01/15 08:38:39;;;;;;;36.37;20.77;;;1.50;99.90;;;;;;5094725;28;20175;-72
2024/01/15 08:41:05;;;;;;;38.97;22.63;;;1.60;99.90;;;;;;5111161;28;20164;-72
2024/01/15 08:43:31;;;;;;;38.70;21.80;;;1.50;99.90;;;;;;5112359;28;20180;-72
2024/01/15 08:45:57;;;;;;;32.93;17.97;;;1.50;99.90;;;;;;5112217;28;20200;-72
2024/01/15 08:48:23;;;;;;;33.80;22.47;;;1.50;99.90;;;;;;5112300;28;20173;-71
2024/01/15 08:50:49;;;;;;;39.53;21.77;;;1.60;99.90;;;;;;5112874;28;20553;-72
2024/01/15 08:53:14;;;;;;;35.23;21.83;;;1.60;99.90;;;;;;5113772;28;20208;-72
2024/01/15 08:55:42;;;;;;;42.20;22.93;;;1.60;99.90;;;;;;5118956;28;20379;-72
2024/01/15 08:58:08;;;;;;;39.60;23.43;;;1.60;99.90;;;;;;5117575;28;20168;-71
2024/01/15 09:00:34;;;;;;;43.00;22.77;;;1.60;99.90;;;;;;5113255;28;20173;-71
2024/01/15 09:03:00;;;;;;;32.73;19.40;;;1.70;99.90;;;;;;5116731;28;20255;-71
2024/01/15 09:05:26;;;;;;;30.27;20.37;;;1.60;99.90;;;;;;5112224;28;20181;-70
2024/01/15 09:07:52;;;;;;;31.73;20.10;;;1.60;99.90;;;;;;5114099;28;20240;-72
2024/01/15 09:10:18;;;;;;;32.77;19.73;;;1.60;99.90;;;;;;5117158;28;20648;-72
2024/01/15 09:12:43;;;;;;;22.33;16.07;;;1.60;99.90;;;;;;5114859;28;20242;-72
2024/01/15 09:15:09;;;;;;;22.53;15.10;;;1.60;99.90;;;;;;5102488;28;20169;-72
2024/01/15 09:17:35;;;;;;;26.27;17.77;;;1.60;99.90;;;;;;5113296;28;20268;-72
2024/01/15 09:20:00;;;;;;;21.13;16.97;;;1.50;99.90;;;;;;5116337;28;20161;-71
2024/01/15 09:22:26;;;;;;;23.80;16.20;;;1.50;99.90;;;;;;5098068;28;20308;-72
2024/01/15 09:24:52;;;;;;;23.47;16.53;;;1.50;99.90;;;;;;5113532;28;20199;-72
2024/01/15 09:27:18;;;;;;;27.07;18.70;;;1.50;99.90;;;;;;5117118;28;20200;-71
2024/01/15 09:29:45;;;;;;;24.50;15.50;;;1.50;99.90;;;;;;5116133;28;20180;-72
2024/01/15 09:32:15;;;;;;;21.57;14.87;;;1.40;99.90;;;;;;5118247;28;20636;-71
2024/01/15 09:34:41;;;;;;;17.50;14.10;;;1.40;99.90;;;;;;5116688;28;20169;-71
2024/01/15 09:37:06;;;;;;;28.53;16.80;;;1.30;99.90;;;;;;5111899;28;20189;-72
2024/01/15 09:39:32;;;;;;;20.27;14.50;;;1.50;99.90;;;;;;5111753;28;20604;-72
2024/01/15 09:41:59;;;;;;;16.33;13.20;;;1.50;99.90;;;;;;5111608;28;20169;-72
2024/01/15 09:44:26;;;;;;;16.20;12.87;;;1.60;99.90;;;;;;5110921;28;20173;-72
2024/01/15 09:46:52;;;;;;;10.77;9.67;;;1.50;99.90;;;;;;5112590;28;20515;-71
2024/01/15 09:49:18;;;;;;;12.47;11.47;;;1.50;99.90;;;;;;5109298;28;20177;-71
2024/01/15 09:51:44;;;;;;;11.70;10.40;;;1.50;99.90;;;;;;5090905;28;20211;-72
2024/01/15 09:54:13;;;;;;;12.50;10.13;;;1.50;99.90;;;;;;5091244;28;20161;-72
2024/01/15 09:56:39;;;;;;;10.73;9.70;;;2.00;99.90;;;;;;5091257;28;20204;-72
2024/01/15 09:59:06;;;;;;;8.93;8.20;;;1.70;99.90;;;;;;5091271;28;20246;-72
2024/01/15 10:01:32;;;;;;;10.57;9.47;;;1.70;99.90;;;;;;5091409;28;20653;-71
2024/01/15 10:04:01;;;;;;;11.40;10.00;;;1.70;99.90;;;;;;5091401;28;20177;-71
2024/01/15 10:06:30;;;;;;;13.53;11.80;;;1.80;99.90;;;;;;5100470;28;20201;-71
2024/01/15 10:08:58;;;;;;;11.63;10.40;;;1.80;99.90;;;;;;5093470;28;20176;-71
2024/01/15 10:11:24;;;;;;;13.50;10.77;;;1.70;99.90;;;;;;5111087;28;20179;-71
2024/01/15 10:13:53;;;;;;;12.77;11.20;;;1.70;99.90;;;;;;5111614;28;20264;-72
2024/01/15 10:16:22;;;;;;;11.37;10.27;;;1.70;99.90;;;;;;5111249;28;20189;-71
2024/01/15 10:18:48;;;;;;;11.97;10.77;;;1.70;99.90;;;;;;5111781;28;20176;-72
2024/01/15 10:21:14;;;;;;;11.90;10.70;;;1.80;99.90;;;;;;5111718;28;20169;-71
2024/01/15 10:23:39;;;;;;;11.50;9.87;;;1.80;99.90;;;;;;5114110;28;20186;-71
2024/01/15 10:26:05;;;;;;;10.77;9.70;;;1.80;99.90;;;;;;5114879;28;20299;-71
2024/01/15 10:28:31;;;;;;;11.30;10.17;;;1.70;99.90;;;;;;5096285;28;20169;-72
2024/01/15 10:30:59;;;;;;;10.10;9.10;;;1.80;99.90;;;;;;5114903;28;20611;-72
2024/01/15 10:33:28;;;;;;;8.63;7.90;;;1.80;99.90;;;;;;5114545;28;20197;-72
2024/01/15 10:35:55;;;;;;;9.93;8.60;;;1.70;99.90;;;;;;5114613;28;20632;-72
2024/01/15 10:38:22;;;;;;;10.20;9.30;;;1.70;99.90;;;;;;5114251;28;20160;-71
2024/01/15 10:40:52;;;;;;;10.50;9.00;;;1.60;99.90;;;;;;5097111;28;20728;-71
2024/01/15 10:43:17;;;;;;;8.83;8.03;;;1.50;99.90;;;;;;5097146;28;20203;-72
2024/01/15 10:45:47;;;;;;;8.93;8.23;;;1.40;99.90;;;;;;5114683;28;20189;-72
2024/01/15 10:48:14;;;;;;;9.13;8.33;;;1.40;99.90;;;;;;5114772;28;20226;-72
2024/01/15 10:50:40;;;;;;;9.10;6.90;;;1.40;99.90;;;;;;5101586;28;20181;-72
2024/01/15 10:53:06;;;;;;;8.10;7.50;;;1.40;99.90;;;;;;5114579;28;20200;-72
2024/01/15 10:55:34;;;;;;;9.30;8.50;;;1.40;99.90;;;;;;5114522;28;20185;-72
2024/01/15 10:58:03;;;;;;;7.03;6.53;;;1.50;99.90;;;;;;5114877;28;20157;-71
2024/01/15 11:00:29;;;;;;;7.67;6.93;;;1.60;99.90;;;;;;5114299;28;20165;-71
2024/01/15 11:02:55;;;;;;;8.53;7.73;;;1.60;99.90;;;;;;5114500;28;20173;-71
2024/01/15 11:05:22;;;;;;;7.83;7.23;;;1.60;99.90;;;;;;5113368;28;20225;-70
2024/01/15 11:07:51;;;;;;;7.73;7.00;;;1.70;99.90;;;;;;5114001;28;20214;-71
2024/01/15 11:10:46;;;;;;;7.70;7.10;;;1.70;99.90;;;;;;5114044;28;20251;-71
2024/01/15 11:13:14;;;;;;;7.70;7.10;;;1.80;99.90;;;;;;5095848;28;20228;-71
2024/01/15 11:16:09;;;;;;;8.07;7.40;;;1.80;99.90;;;;;;5095509;28;20554;-71
2024/01/15 11:18:37;;;;;;;9.00;7.83;;;1.80;99.90;;;;;;5113728;28;20193;-71
2024/01/15 11:21:15;;;;;;;8.10;7.47;;;1.80;99.90;;;;;;5113912;28;20230;-70
2024/01/15 11:23:46;;;;;;;7.23;6.63;;;2.00;99.90;;;;;;5113929;28;20591;-71
2024/01/15 11:26:31;;;;;;;7.90;7.17;;;2.10;99.90;;;;;;5114084;28;20222;-70
2024/01/15 11:28:59;;;;;;;9.00;7.60;;;2.10;99.90;;;;;;5495639;22;20229;-87
2024/01/15 11:31:40;;;;;;;8.20;7.60;;;2.40;99.90;;;;;;5068995;28;20170;-86
2024/01/15 11:34:10;;;;;;;9.07;8.30;;;2.60;99.90;;;;;;5105520;28;20180;-87
2024/01/15 11:37:09;;;;;;;8.80;8.00;;;2.30;99.90;;;;;;5080419;28;20265;-87
2024/01/15 11:39:46;;;;;;;9.23;8.10;;;1.90;99.90;;;;;;5088083;28;20178;-88
2024/01/15 11:42:15;;;;;;;10.23;9.33;;;1.80;99.90;;;;;;5062783;28;20186;-87
2024/01/15 11:44:44;;;;;;;11.80;10.70;;;2.10;99.90;;;;;;5079891;28;20190;-87
2024/01/15 11:47:14;;;;;;;10.70;9.50;;;2.60;99.90;;;;;;5083306;28;20194;-87
2024/01/15 11:50:00;;;;;;;11.50;10.33;;;1.90;99.90;;;;;;5066881;28;20193;-87
2024/01/15 11:52:34;;;;;;;10.67;9.63;;;2.20;99.90;;;;;;5084063;28;20205;-87
2024/01/15 11:55:41;;;;;;;10.83;9.60;;;1.90;99.90;;;;;;5055436;28;20217;-87
2024/01/15 11:58:12;;;;;;;14.77;11.23;;;1.90;99.90;;;;;;5062239;28;20198;-87
2024/01/15 12:00:43;;;;;;;11.03;9.80;;;2.20;99.90;;;;;;5079674;28;20215;-88
2024/01/15 12:03:10;;;;;;;14.03;11.97;;;2.40;99.90;;;;;;5083491;28;20189;-86
2024/01/15 12:05:38;;;;;;;15.50;13.20;;;2.50;99.90;;;;;;5077977;28;20174;-87
2024/01/15 12:08:10;;;;;;;15.50;12.77;;;2.30;99.90;;;;;;5077830;28;20217;-88
2024/01/15 12:10:37;;;;;;;16.03;13.83;;;2.50;99.90;;;;;;5061523;28;20178;-88
2024/01/15 12:13:03;;;;;;;11.93;10.00;;;2.80;99.90;;;;;;5078233;28;20247;-88
2024/01/15 12:15:30;;;;;;;13.70;10.83;;;3.00;99.90;;;;;;5075981;28;20166;-88
2024/01/15 12:17:59;;;;;;;13.27;11.87;;;3.20;99.90;;;;;;5076573;28;20190;-88
2024/01/15 12:20:29;;;;;;;18.97;11.67;;;3.30;99.90;;;;;;5077349;28;20275;-88
2024/01/15 12:22:55;;;;;;;12.87;11.63;;;2.90;99.90;;;;;;5076322;28;20182;-88
2024/01/15 12:25:22;;;;;;;13.80;9.77;;;3.20;99.90;;;;;;5076944;28;20654;-88
2024/01/15 12:27:48;;;;;;;16.47;10.90;;;3.40;96.00;;;;;;5077015;28;20252;-88
2024/01/15 12:30:15;;;;;;;12.80;9.67;;;3.50;48.60;;;;;;5062096;28;20194;-88
2024/01/15 12:32:44;;;;;;;14.40;10.43;;;2.80;31.80;;;;;;5060160;28;20247;-87
2024/01/15 12:35:13;;;;;;;14.17;10.00;;;3.10;6.50;;;;;;5059707;28;20208;-88
2024/01/15 12:37:40;;;;;;;14.77;10.03;;;2.80;22.10;;;;;;5060645;28;20202;-87